This is the latest recevied weather packets stored in our database for station/object N5XL. If no packets are shown the sender has not sent any weather packets the latest 10 day(s).
| Time | Temp. | Humidity | Pressure | Rain* | Wind** | Luminosity | Snow |
|---|---|---|---|---|---|---|---|
| 1777942443 | 25° C | 27% | 1011.2 hPa | 0 mm | - | 77 W/m² | - |
| 1777941903 | 25° C | 26% | 1011.5 hPa | 0 mm | - | 62 W/m² | - |
| 1777938843 | 26.67° C | 23% | 1011.4 hPa | 0 mm | - | 70 W/m² | - |
| 1777935243 | 27.22° C | 23% | 1010.6 hPa | 0 mm | - | 169 W/m² | - |
| 1777934724 | 27.22° C | 24% | 1011.2 hPa | 0 mm | - | 193 W/m² | - |
| 1777926964 | 26.67° C | 27% | 1013 hPa | 0 mm | - | 345 W/m² | - |
| 1777919764 | 27.22° C | 30% | 1012.6 hPa | 0 mm | - | 338 W/m² | - |
| 1777919223 | 26.67° C | 30% | 1012.6 hPa | 0 mm | - | 465 W/m² | - |
| 1777918684 | 26.67° C | 31% | 1012.7 hPa | 0 mm | - | 316 W/m² | - |
| 1777915083 | 25.56° C | 35% | 1013.2 hPa | 0 mm | - | 330 W/m² | - |
| 1777913103 | 26.11° C | 34% | 1012.9 hPa | 0 mm | - | 412 W/m² | - |
| 1777910043 | 24.44° C | 37% | 1013.2 hPa | 0 mm | - | 300 W/m² | - |
| 1777908423 | 23.89° C | 39% | 1012.7 hPa | 0 mm | - | 213 W/m² | - |
| 1777905363 | 22.22° C | 43% | 1012.8 hPa | 0 mm | - | 154 W/m² | - |
| 1777904844 | 22.22° C | 43% | 1012.8 hPa | 0 mm | - | 142 W/m² | - |
| 1777902325 | 21.11° C | 43% | 1012.6 hPa | 0 mm | - | 18 W/m² | - |
| 1777901224 | 21.11° C | 42% | 1012.2 hPa | 0 mm | - | 18 W/m² | - |
| 1777899604 | 21.11° C | 41% | 1012.1 hPa | 0 mm | - | 0 W/m² | - |
| 1777896005 | 21.67° C | 40% | 1011.4 hPa | 0 mm | - | 0 W/m² | - |
| 1777895664 | 21.67° C | 40% | 1011.3 hPa | 0 mm | - | 0 W/m² | - |
| 1777892043 | 22.22° C | 39% | 1011.4 hPa | 0 mm | - | 0 W/m² | - |
| 1777889883 | 22.22° C | 39% | 1011.2 hPa | 0 mm | - | 0 W/m² | - |
| 1777889364 | 22.22° C | 39% | 1011.3 hPa | 0 mm | - | 0 W/m² | - |
| 1777884843 | 23.33° C | 37% | 1010.8 hPa | 0 mm | - | 0 W/m² | - |
| 1777879083 | 24.44° C | 36% | 1011 hPa | 0 mm | - | 0 W/m² | - |
* Rain latest hour (hover to see other rain measurements)
** Current wind speed in m/s (hover to see current wind gust speed)